createdAt,value
2019-05-05T00:01:55.555Z,2.39
2019-05-05T00:04:26.339Z,2.48
2019-05-05T00:06:55.902Z,2.52
2019-05-05T00:09:25.440Z,2.45
2019-05-05T00:12:11.406Z,2.51
2019-05-05T00:14:58.275Z,2.44
2019-05-05T00:17:29.418Z,2.48
2019-05-05T00:19:59.038Z,2.56
2019-05-05T00:22:28.595Z,2.65
2019-05-05T00:24:58.086Z,2.64
2019-05-05T00:27:27.589Z,2.64
2019-05-05T00:29:57.069Z,2.67
2019-05-05T00:32:26.631Z,2.66
2019-05-05T00:34:56.163Z,2.64
2019-05-05T00:37:25.824Z,2.60
2019-05-05T00:39:55.377Z,2.58
2019-05-05T00:42:24.871Z,2.81
2019-05-05T00:44:54.935Z,2.72
2019-05-05T00:47:26.139Z,2.87
2019-05-05T00:49:56.278Z,2.71
2019-05-05T00:52:25.903Z,2.88
2019-05-05T00:54:55.699Z,2.92
2019-05-05T00:57:25.239Z,2.67
2019-05-05T00:59:54.729Z,2.54
2019-05-05T01:02:28.532Z,2.76
2019-05-05T01:05:36.379Z,2.56
2019-05-05T01:08:08.384Z,2.29
2019-05-05T01:10:37.863Z,2.75
2019-05-05T01:13:07.506Z,2.67
2019-05-05T01:15:37.270Z,2.75
2019-05-05T01:18:26.115Z,2.76
2019-05-05T01:21:09.079Z,2.73
2019-05-05T01:23:38.569Z,2.43
2019-05-05T01:26:08.622Z,2.68
2019-05-05T01:28:38.225Z,2.71
2019-05-05T01:31:09.434Z,2.69
2019-05-05T01:33:44.927Z,2.68
2019-05-05T01:36:14.978Z,2.72
2019-05-05T01:39:01.140Z,2.73
2019-05-05T01:41:34.949Z,2.76
2019-05-05T01:44:04.943Z,2.74
2019-05-05T01:46:35.365Z,2.85
2019-05-05T01:49:05.456Z,2.80
2019-05-05T01:51:35.572Z,2.82
2019-05-05T01:54:05.475Z,2.80
2019-05-05T01:56:35.523Z,2.66
2019-05-05T01:59:05.352Z,2.63
2019-05-05T02:01:35.294Z,2.52
2019-05-05T02:04:05.704Z,2.55
2019-05-05T02:06:35.314Z,2.59
2019-05-05T02:09:06.483Z,2.64
2019-05-05T02:11:36.245Z,2.62
2019-05-05T02:14:05.765Z,2.59
2019-05-05T02:16:35.261Z,2.63
2019-05-05T02:19:05.177Z,2.53
2019-05-05T02:21:35.387Z,2.55
2019-05-05T02:24:05.364Z,2.62
2019-05-05T02:26:35.742Z,2.60
2019-05-05T02:29:07.142Z,2.61
2019-05-05T02:31:55.232Z,2.61
2019-05-05T02:34:26.285Z,2.56
2019-05-05T02:36:56.592Z,2.55
2019-05-05T02:39:26.411Z,2.52
2019-05-05T02:41:57.159Z,2.57
2019-05-05T02:44:28.971Z,2.58
2019-05-05T02:47:15.490Z,2.52
2019-05-05T02:49:45.577Z,2.51
2019-05-05T02:52:17.703Z,2.60
2019-05-05T02:54:47.368Z,2.63
2019-05-05T02:57:17.000Z,2.63
2019-05-05T02:59:51.115Z,2.65
2019-05-05T03:02:23.680Z,2.49
2019-05-05T03:04:53.737Z,2.48
2019-05-05T03:07:54.449Z,2.48
2019-05-05T03:10:25.374Z,2.55
2019-05-05T03:12:55.706Z,2.58
2019-05-05T03:15:52.269Z,2.57
2019-05-05T03:18:24.649Z,2.59
2019-05-05T03:21:02.322Z,2.53
2019-05-05T03:23:26.055Z,2.49
2019-05-05T03:25:55.743Z,2.48
2019-05-05T03:28:26.937Z,2.51
2019-05-05T03:30:56.584Z,2.61
2019-05-05T03:33:27.395Z,2.56
2019-05-05T03:35:56.875Z,2.53
2019-05-05T03:38:57.280Z,2.37
2019-05-05T03:41:39.469Z,2.40
2019-05-05T03:44:45.071Z,2.56
2019-05-05T03:47:14.959Z,1.61
2019-05-05T03:49:44.695Z,2.49
2019-05-05T03:52:14.632Z,2.53
2019-05-05T03:54:45.683Z,2.54
2019-05-05T03:57:15.929Z,2.61
2019-05-05T03:59:45.642Z,2.61
2019-05-05T04:02:16.819Z,2.58
2019-05-05T04:04:48.050Z,2.57
2019-05-05T04:07:17.611Z,2.53
2019-05-05T04:09:48.492Z,2.50
2019-05-05T04:12:18.097Z,2.55
2019-05-05T04:14:47.579Z,2.53
2019-05-05T04:17:34.571Z,2.58
2019-05-05T04:20:18.048Z,2.66
2019-05-05T04:22:47.542Z,2.62
2019-05-05T04:25:17.041Z,2.51
2019-05-05T04:27:46.531Z,2.51
2019-05-05T04:30:16.021Z,2.50
2019-05-05T04:32:45.546Z,2.39
2019-05-05T04:35:15.178Z,2.37
2019-05-05T04:37:44.666Z,2.39
2019-05-05T04:40:14.957Z,2.38
2019-05-05T04:42:44.475Z,2.38
2019-05-05T04:45:14.941Z,2.35
2019-05-05T04:47:53.783Z,2.42
2019-05-05T04:50:44.073Z,2.36
2019-05-05T04:56:34.351Z,2.45
2019-05-05T04:59:04.188Z,2.49
2019-05-05T05:01:34.273Z,2.46
2019-05-05T05:04:17.573Z,2.40
2019-05-05T05:06:48.695Z,2.43
2019-05-05T05:09:18.179Z,2.50
2019-05-05T05:11:47.671Z,2.51
2019-05-05T05:14:17.199Z,2.62
2019-05-05T05:16:48.481Z,2.61
2019-05-05T05:19:17.978Z,2.63
2019-05-05T05:21:58.403Z,2.71
2019-05-05T05:24:18.698Z,2.76
2019-05-05T05:26:48.234Z,2.91
2019-05-05T05:29:17.714Z,2.93
2019-05-05T05:31:47.201Z,3.11
2019-05-05T05:34:16.704Z,3.28
2019-05-05T05:36:46.175Z,3.49
2019-05-05T05:39:33.568Z,3.52
2019-05-05T05:42:04.544Z,3.66
2019-05-05T05:44:44.438Z,3.54
2019-05-05T05:47:24.606Z,3.66
2019-05-05T05:49:55.708Z,3.81
2019-05-05T05:52:25.243Z,3.88
2019-05-05T05:54:54.700Z,3.93
2019-05-05T05:57:43.972Z,3.96
2019-05-05T06:00:14.822Z,3.93
2019-05-05T06:02:44.296Z,3.92
2019-05-05T06:05:14.729Z,3.84
2019-05-05T06:07:44.450Z,3.80
2019-05-05T06:10:22.310Z,3.80
2019-05-05T06:12:45.768Z,3.81
2019-05-05T06:15:15.561Z,3.82
2019-05-05T06:17:45.078Z,3.77
2019-05-05T06:20:15.012Z,3.86
2019-05-05T06:22:44.782Z,3.87
2019-05-05T06:25:15.975Z,3.66
2019-05-05T06:27:45.970Z,3.61
2019-05-05T06:30:15.765Z,3.64
2019-05-05T06:32:45.777Z,3.57
2019-05-05T06:35:34.693Z,3.51
2019-05-05T06:38:04.818Z,3.55
2019-05-05T06:40:38.684Z,3.50
2019-05-05T06:43:18.653Z,3.59
2019-05-05T06:46:01.686Z,3.83
2019-05-05T06:48:50.511Z,3.89
2019-05-05T06:51:20.045Z,3.90
2019-05-05T06:53:49.661Z,4.02
2019-05-05T06:56:19.148Z,4.17
2019-05-05T06:58:48.645Z,4.18
2019-05-05T07:01:18.143Z,4.20
2019-05-05T07:03:47.643Z,4.24
2019-05-05T07:06:18.412Z,4.26
2019-05-05T07:08:47.897Z,4.37
2019-05-05T07:11:17.435Z,4.47
2019-05-05T07:13:46.905Z,4.56
2019-05-05T07:16:16.475Z,4.51
2019-05-05T07:18:47.064Z,4.45
2019-05-05T07:21:16.615Z,4.34
2019-05-05T07:23:46.113Z,4.22
2019-05-05T07:26:15.637Z,4.12
2019-05-05T07:28:45.982Z,4.15
2019-05-05T07:31:15.485Z,3.97
2019-05-05T07:33:45.010Z,3.93
2019-05-05T07:36:14.639Z,3.95
2019-05-05T07:38:45.887Z,3.76
2019-05-05T07:41:15.498Z,3.89
2019-05-05T07:43:44.968Z,3.76
2019-05-05T07:46:14.470Z,3.79
2019-05-05T07:49:03.976Z,4.02
2019-05-05T07:51:47.636Z,3.30
2019-05-05T07:54:17.188Z,3.79
2019-05-05T07:56:46.702Z,4.78
2019-05-05T07:59:16.194Z,4.94
2019-05-05T08:01:46.780Z,5.06
2019-05-05T08:04:16.409Z,5.11
2019-05-05T08:06:45.911Z,4.89
2019-05-05T08:09:15.914Z,4.93
2019-05-05T08:11:45.387Z,4.58
2019-05-05T08:14:14.885Z,4.68
2019-05-05T08:17:03.748Z,4.55
2019-05-05T08:19:37.851Z,4.38
2019-05-05T08:22:07.356Z,4.61
2019-05-05T08:24:54.514Z,4.79
2019-05-05T08:27:29.972Z,4.86
2019-05-05T08:30:04.603Z,4.91
2019-05-05T08:32:39.422Z,4.92
2019-05-05T08:35:09.089Z,4.71
2019-05-05T08:37:38.590Z,4.57
2019-05-05T08:40:08.404Z,5.04
2019-05-05T08:42:37.890Z,5.47
2019-05-05T08:45:07.899Z,5.88
2019-05-05T08:47:37.397Z,5.78
2019-05-05T08:50:09.762Z,5.93
2019-05-05T08:52:39.270Z,6.07
2019-05-05T08:55:08.993Z,6.16
2019-05-05T08:57:38.465Z,6.33
2019-05-05T09:00:11.248Z,6.22
2019-05-05T09:02:41.062Z,6.51
2019-05-05T09:05:11.195Z,6.30
2019-05-05T09:07:40.670Z,6.72
2019-05-05T09:10:10.773Z,6.88
2019-05-05T09:12:40.248Z,6.80
2019-05-05T09:15:10.399Z,6.66
2019-05-05T09:17:39.873Z,6.74
2019-05-05T09:20:09.499Z,6.59
2019-05-05T09:22:38.986Z,6.66
2019-05-05T09:25:19.539Z,6.33
2019-05-05T09:27:50.728Z,6.47
2019-05-05T09:30:37.188Z,6.45
2019-05-05T09:33:06.749Z,6.82
2019-05-05T09:35:36.297Z,6.96
2019-05-05T09:38:05.888Z,6.79
2019-05-05T09:40:39.478Z,5.99
2019-05-05T09:43:10.481Z,6.01
2019-05-05T09:45:40.298Z,6.68
2019-05-05T09:48:09.937Z,6.86
2019-05-05T09:50:39.464Z,6.96
2019-05-05T09:53:08.947Z,7.13
2019-05-05T09:55:39.038Z,6.98
2019-05-05T09:58:08.508Z,6.90
2019-05-05T10:00:39.637Z,7.01
2019-05-05T10:03:09.123Z,5.99
2019-05-05T10:05:38.652Z,5.31
2019-05-05T10:08:08.143Z,5.38
2019-05-05T10:10:37.621Z,4.86
2019-05-05T10:13:07.180Z,5.21
2019-05-05T10:15:36.687Z,5.26
2019-05-05T10:18:06.191Z,5.19
2019-05-05T10:20:35.756Z,5.68
2019-05-05T10:23:05.229Z,6.34
2019-05-05T10:25:39.336Z,6.38
2019-05-05T10:28:08.828Z,7.29
2019-05-05T10:30:38.309Z,6.66
2019-05-05T10:33:07.870Z,6.07
2019-05-05T10:35:37.621Z,6.56
2019-05-05T10:38:07.190Z,6.82
2019-05-05T10:40:36.718Z,7.00
2019-05-05T10:43:06.257Z,7.31
2019-05-05T10:45:35.884Z,7.62
2019-05-05T10:48:05.977Z,8.17
2019-05-05T10:50:35.637Z,7.61
2019-05-05T10:53:05.117Z,8.34
2019-05-05T10:55:34.967Z,8.52
2019-05-05T10:58:04.510Z,8.62
2019-05-05T11:00:49.485Z,7.54
2019-05-05T11:03:19.641Z,8.17
2019-05-05T11:05:49.156Z,8.95
2019-05-05T11:08:18.809Z,8.85
2019-05-05T11:10:48.314Z,8.90
2019-05-05T11:13:17.883Z,8.67
2019-05-05T11:15:47.551Z,8.03
2019-05-05T11:18:17.032Z,8.32
2019-05-05T11:20:46.614Z,8.45
2019-05-05T11:23:16.117Z,8.50
2019-05-05T11:25:45.686Z,8.84
2019-05-05T11:28:15.270Z,9.25
2019-05-05T11:30:46.826Z,9.48
2019-05-05T11:33:34.537Z,9.32
2019-05-05T11:36:08.999Z,9.37
2019-05-05T11:38:41.260Z,8.14
2019-05-05T11:41:09.790Z,8.45
2019-05-05T11:43:39.537Z,9.23
2019-05-05T11:46:09.033Z,9.55
2019-05-05T11:48:38.524Z,10.35
2019-05-05T11:51:08.015Z,9.52
2019-05-05T11:53:37.510Z,9.64
2019-05-05T11:56:07.819Z,9.21
2019-05-05T11:58:37.315Z,9.52
2019-05-05T12:01:06.798Z,9.56
2019-05-05T12:03:37.876Z,9.79
2019-05-05T12:06:07.507Z,9.84
2019-05-05T12:08:37.012Z,10.17
2019-05-05T12:11:06.836Z,9.88
2019-05-05T12:13:36.325Z,10.15
2019-05-05T12:16:06.679Z,9.06
2019-05-05T12:18:36.298Z,7.95
2019-05-05T12:21:05.886Z,7.80
2019-05-05T12:23:35.372Z,8.23
2019-05-05T12:26:04.803Z,8.48
2019-05-05T12:28:35.891Z,8.52
2019-05-05T12:31:15.603Z,9.01
2019-05-05T12:33:45.094Z,8.92
2019-05-05T12:36:15.173Z,9.13
2019-05-05T12:38:44.650Z,9.38
2019-05-05T12:41:14.784Z,9.49
2019-05-05T12:43:44.482Z,10.10
2019-05-05T12:46:30.424Z,9.76
2019-05-05T12:49:01.554Z,9.33
2019-05-05T12:51:31.041Z,9.37
2019-05-05T12:54:00.514Z,9.69
2019-05-05T12:56:30.043Z,9.50
2019-05-05T12:59:00.784Z,9.91
2019-05-05T13:01:37.553Z,10.39
2019-05-05T13:04:07.018Z,10.32
2019-05-05T13:06:36.532Z,10.04
2019-05-05T13:09:07.921Z,10.20
2019-05-05T13:11:37.561Z,10.13
2019-05-05T13:14:07.051Z,9.73
2019-05-05T13:16:36.533Z,9.19
2019-05-05T13:19:07.684Z,8.29
2019-05-05T13:21:39.357Z,8.71
2019-05-05T13:24:19.181Z,8.95
2019-05-05T13:26:54.120Z,9.33
2019-05-05T13:29:24.616Z,10.06
2019-05-05T13:32:14.177Z,8.56
2019-05-05T13:35:18.198Z,8.14
2019-05-05T13:37:47.682Z,8.60
2019-05-05T13:40:48.177Z,8.67
2019-05-05T13:46:50.818Z,9.02
2019-05-05T13:49:24.613Z,8.07
2019-05-05T13:51:54.186Z,9.00
2019-05-05T13:54:24.239Z,8.64
2019-05-05T13:56:53.804Z,8.90
2019-05-05T13:59:25.508Z,9.01
2019-05-05T14:01:54.584Z,8.87
2019-05-05T14:04:24.269Z,8.70
2019-05-05T14:07:13.105Z,7.59
2019-05-05T14:09:44.173Z,8.14
2019-05-05T14:12:14.675Z,8.02
2019-05-05T14:14:44.235Z,7.91
2019-05-05T14:17:14.701Z,8.24
2019-05-05T14:19:44.626Z,8.23
2019-05-05T14:22:14.076Z,8.32
2019-05-05T14:24:45.208Z,8.42
2019-05-05T14:27:14.672Z,8.11
2019-05-05T14:29:51.524Z,7.96
2019-05-05T14:32:23.991Z,8.06
2019-05-05T14:35:01.134Z,7.73
2019-05-05T14:37:34.028Z,6.91
2019-05-05T14:40:05.027Z,6.61
2019-05-05T14:42:34.571Z,6.41
2019-05-05T14:45:06.089Z,6.48
2019-05-05T14:47:54.922Z,6.37
2019-05-05T14:50:24.425Z,6.19
2019-05-05T14:52:53.944Z,6.41
2019-05-05T14:55:25.458Z,6.47
2019-05-05T14:57:54.639Z,6.18
2019-05-05T15:00:26.023Z,6.12
2019-05-05T15:02:55.634Z,6.13
2019-05-05T15:05:44.277Z,6.26
2019-05-05T15:08:16.537Z,6.00
2019-05-05T15:10:48.182Z,5.52
2019-05-05T15:13:18.412Z,5.99
2019-05-05T15:15:47.961Z,6.33
2019-05-05T15:18:17.473Z,6.51
2019-05-05T15:20:47.483Z,6.53
2019-05-05T15:23:18.214Z,6.51
2019-05-05T15:25:47.696Z,6.83
2019-05-05T15:28:36.544Z,6.88
2019-05-05T15:31:06.044Z,6.99
2019-05-05T15:33:35.514Z,7.10
2019-05-05T15:36:05.034Z,7.20
2019-05-05T15:38:34.915Z,7.17
2019-05-05T15:41:04.813Z,7.24
2019-05-05T15:43:34.346Z,7.25
2019-05-05T15:46:04.491Z,7.10
2019-05-05T15:48:34.195Z,7.42
2019-05-05T15:51:04.205Z,7.59
2019-05-05T15:53:33.846Z,7.54
2019-05-05T15:56:04.490Z,7.64
2019-05-05T15:58:34.357Z,7.90
2019-05-05T16:01:04.005Z,7.54
2019-05-05T16:03:46.454Z,7.63
2019-05-05T16:06:15.938Z,7.83
2019-05-05T16:09:25.639Z,7.94
2019-05-05T16:12:14.539Z,8.02
2019-05-05T16:14:58.398Z,7.72
2019-05-05T16:17:47.300Z,7.60
2019-05-05T16:20:18.482Z,7.53
2019-05-05T16:22:58.502Z,7.10
2019-05-05T16:25:28.049Z,6.13
2019-05-05T16:27:57.581Z,4.10
2019-05-05T16:30:27.081Z,2.64
2019-05-05T16:32:56.549Z,2.47
2019-05-05T16:35:26.076Z,2.26
2019-05-05T16:37:55.601Z,2.39
2019-05-05T16:40:25.891Z,2.86
2019-05-05T16:42:55.436Z,2.90
2019-05-05T16:45:44.719Z,2.54
2019-05-05T16:48:14.458Z,1.68
2019-05-05T16:53:53.920Z,1.60
2019-05-05T16:56:24.580Z,2.67
2019-05-05T16:58:54.055Z,2.52
2019-05-05T17:01:23.549Z,2.61
2019-05-05T17:03:54.217Z,2.65
2019-05-05T17:06:24.421Z,2.71
2019-05-05T17:08:54.856Z,2.92
2019-05-05T17:11:24.629Z,2.95
2019-05-05T17:13:55.840Z,2.45
2019-05-05T17:16:35.807Z,2.86
2019-05-05T17:22:09.074Z,2.80
2019-05-05T17:24:38.978Z,2.46
2019-05-05T17:27:08.425Z,2.43
2019-05-05T17:29:37.974Z,2.68
2019-05-05T17:32:26.796Z,2.49
2019-05-05T17:34:56.502Z,2.68
2019-05-05T17:37:45.317Z,2.57
2019-05-05T17:40:16.687Z,2.70
2019-05-05T17:43:27.683Z,2.81
2019-05-05T17:45:57.404Z,2.69
2019-05-05T17:48:32.704Z,2.47
2019-05-05T17:51:06.229Z,2.43
2019-05-05T17:53:38.168Z,2.50
2019-05-05T17:56:09.330Z,2.57
2019-05-05T18:01:46.884Z,2.68
2019-05-05T18:04:16.456Z,2.77
2019-05-05T18:06:47.587Z,2.61
2019-05-05T18:09:21.229Z,2.70
2019-05-05T18:12:08.035Z,2.60
2019-05-05T18:18:00.277Z,2.57
2019-05-05T18:21:02.217Z,2.44
2019-05-05T18:23:31.697Z,2.53
2019-05-05T18:26:01.228Z,2.58
2019-05-05T18:28:30.786Z,2.42
2019-05-05T18:31:01.441Z,2.52
2019-05-05T18:33:31.025Z,2.27
2019-05-05T18:36:00.503Z,2.18
2019-05-05T18:38:30.004Z,2.14
2019-05-05T18:41:01.131Z,2.08
2019-05-05T18:43:35.226Z,2.17
2019-05-05T18:46:05.610Z,2.17
2019-05-05T18:48:35.110Z,2.23
2019-05-05T18:51:04.644Z,2.25
2019-05-05T18:53:34.357Z,2.30
2019-05-05T18:56:03.942Z,2.17
2019-05-05T18:58:34.380Z,2.12
2019-05-05T19:01:21.412Z,2.20
2019-05-05T19:04:04.066Z,2.36
2019-05-05T19:06:54.564Z,2.22
2019-05-05T19:09:24.946Z,2.23
2019-05-05T19:11:54.758Z,2.32
2019-05-05T19:14:24.448Z,2.29
2019-05-05T19:16:55.666Z,2.16
2019-05-05T19:19:27.315Z,2.02
2019-05-05T19:21:58.330Z,2.01
2019-05-05T19:24:47.185Z,1.85
2019-05-05T19:27:29.217Z,2.16
2019-05-05T19:29:58.718Z,2.18
2019-05-05T19:32:28.223Z,2.13
2019-05-05T19:34:58.023Z,2.03
2019-05-05T19:37:27.647Z,1.89
2019-05-05T19:39:57.143Z,1.94
2019-05-05T19:42:46.366Z,2.34
2019-05-05T19:45:17.310Z,2.29
2019-05-05T19:47:46.783Z,2.24
2019-05-05T19:50:54.663Z,2.00
2019-05-05T19:53:25.023Z,1.58
2019-05-05T19:56:13.828Z,1.72
2019-05-05T19:59:04.392Z,1.73
2019-05-05T20:01:46.367Z,1.82
2019-05-05T20:04:15.879Z,1.74
2019-05-05T20:06:45.369Z,1.88
2019-05-05T20:09:14.870Z,1.89
2019-05-05T20:12:04.144Z,1.81
2019-05-05T20:14:47.503Z,1.47
2019-05-05T20:17:24.326Z,1.98
2019-05-05T20:19:54.734Z,1.87
2019-05-05T20:22:24.228Z,1.79
2019-05-05T20:24:53.709Z,1.83
2019-05-05T20:27:42.530Z,2.01
2019-05-05T20:30:14.307Z,1.99
2019-05-05T20:33:24.269Z,2.01
2019-05-05T20:35:56.584Z,1.77
2019-05-05T20:38:36.444Z,2.00
2019-05-05T20:41:14.173Z,1.76
2019-05-05T20:43:44.825Z,2.03
2019-05-05T20:46:14.534Z,2.01
2019-05-05T20:48:44.869Z,1.91
2019-05-05T20:51:14.488Z,2.16
2019-05-05T20:54:04.773Z,1.86
2019-05-05T20:56:54.097Z,1.81
2019-05-05T20:59:30.527Z,2.20
2019-05-05T21:01:56.367Z,2.16
2019-05-05T21:04:25.844Z,2.08
2019-05-05T21:06:55.334Z,1.96
2019-05-05T21:09:24.977Z,1.99
2019-05-05T21:11:54.872Z,2.42
2019-05-05T21:14:31.980Z,2.25
2019-05-05T21:16:55.703Z,2.15
2019-05-05T21:19:25.774Z,2.19
2019-05-05T21:21:56.908Z,2.38
2019-05-05T21:24:26.443Z,2.35
2019-05-05T21:27:04.210Z,2.32
2019-05-05T21:29:41.400Z,2.31
2019-05-05T21:32:05.068Z,2.23
2019-05-05T21:34:34.625Z,2.15
2019-05-05T21:37:24.891Z,2.12
2019-05-05T21:39:55.387Z,2.25
2019-05-05T21:42:24.874Z,2.24
2019-05-05T21:44:54.417Z,2.14
2019-05-05T21:47:24.136Z,2.20
2019-05-05T21:49:54.165Z,2.17
2019-05-05T21:52:40.609Z,2.08
2019-05-05T21:55:24.435Z,2.42
2019-05-05T21:58:34.529Z,2.17
2019-05-05T22:01:11.163Z,2.36
2019-05-05T22:03:40.644Z,2.34
2019-05-05T22:06:10.208Z,2.48
2019-05-05T22:08:39.708Z,2.25
2019-05-05T22:11:09.215Z,2.43
2019-05-05T22:13:38.702Z,2.33
2019-05-05T22:16:46.548Z,2.42
2019-05-05T22:19:17.702Z,2.39
2019-05-05T22:21:48.839Z,2.25
2019-05-05T22:24:37.673Z,2.39
2019-05-05T22:27:07.232Z,2.39
2019-05-05T22:29:36.729Z,2.31
2019-05-05T22:32:06.463Z,2.38
2019-05-05T22:34:35.920Z,2.47
2019-05-05T22:37:09.219Z,2.37
2019-05-05T22:39:36.669Z,2.45
2019-05-05T22:42:06.196Z,2.42
2019-05-05T22:44:35.708Z,2.36
2019-05-05T22:47:05.264Z,2.42
2019-05-05T22:49:34.775Z,2.09
2019-05-05T22:52:04.280Z,2.22
2019-05-05T22:54:33.793Z,2.08
2019-05-05T22:57:04.628Z,2.10
2019-05-05T22:59:34.281Z,2.12
2019-05-05T23:02:04.045Z,1.88
2019-05-05T23:04:37.867Z,2.21
2019-05-05T23:07:17.510Z,2.11
2019-05-05T23:09:47.012Z,1.84
2019-05-05T23:12:16.520Z,1.86
2019-05-05T23:14:46.014Z,2.00
2019-05-05T23:17:29.145Z,1.97
2019-05-05T23:20:09.011Z,2.14
2019-05-05T23:22:40.154Z,1.92
2019-05-05T23:25:14.528Z,1.89
2019-05-05T23:27:47.185Z,2.22
2019-05-05T23:30:19.756Z,2.37
2019-05-05T23:32:49.593Z,2.43
2019-05-05T23:35:19.258Z,2.29
2019-05-05T23:37:48.818Z,2.20
2019-05-05T23:40:24.698Z,2.22
2019-05-05T23:42:54.456Z,2.09
2019-05-05T23:45:44.837Z,2.37
2019-05-05T23:48:34.917Z,2.30
2019-05-05T23:51:18.342Z,2.27
2019-05-05T23:53:47.835Z,2.11
2019-05-05T23:56:17.531Z,2.40
2019-05-05T23:58:47.018Z,2.39
